Time;durP1;ratioP1;P1;durP2;ratioP2;P2;SDS_P1;SDS_P2;PMS_P1;PMS_P2;Temp;Humidity;BMP_temperature;BMP_pressure;BME280_temperature;BME280_humidity;BME280_pressure;Samples;Min_cycle;Max_cycle;Signal;HPM_P1;HPM_P2
2021/01/07 00:00:28;;;;;;;6.53;5.63;;;;;;;3.80;100.00;97466.59;5073245;28;20229;-69
2021/01/07 00:02:54;;;;;;;6.10;5.50;;;;;;;3.99;100.00;97462.59;5073099;28;20201;-69
2021/01/07 00:05:20;;;;;;;6.07;5.33;;;;;;;4.02;100.00;97472.88;5073053;28;20212;-69
2021/01/07 00:07:46;;;;;;;8.27;5.90;;;;;;;3.99;100.00;97468.03;5073001;28;20252;-69
2021/01/07 00:10:13;;;;;;;7.30;5.37;;;;;;;3.96;100.00;97465.91;5072952;28;20209;-69
2021/01/07 00:12:39;;;;;;;8.20;5.70;;;;;;;3.96;100.00;97465.91;5090415;28;20205;-69
2021/01/07 00:15:06;;;;;;;5.80;5.20;;;;;;;3.98;100.00;97469.16;5091827;28;20298;-69
2021/01/07 00:17:32;;;;;;;7.23;5.57;;;;;;;3.84;100.00;97471.16;5093232;28;20260;-69
2021/01/07 00:19:58;;;;;;;5.57;4.97;;;;;;;3.81;100.00;97474.47;5093142;28;20211;-69
2021/01/07 00:22:24;;;;;;;7.10;5.87;;;;;;;3.84;100.00;97475.78;5092969;28;20300;-69
2021/01/07 00:24:50;;;;;;;6.70;5.77;;;;;;;3.88;100.00;97480.31;5092719;28;20204;-69
2021/01/07 00:27:16;;;;;;;7.13;6.10;;;;;;;3.83;100.00;97482.38;5093034;28;20286;-69
2021/01/07 00:29:42;;;;;;;6.67;5.43;;;;;;;3.90;100.00;97485.47;5092905;28;20307;-69
2021/01/07 00:32:08;;;;;;;7.67;6.20;;;;;;;3.92;100.00;97481.28;5092651;28;20223;-69
2021/01/07 00:34:34;;;;;;;7.83;5.43;;;;;;;3.99;100.00;97486.34;5092337;28;20319;-69
2021/01/07 00:37:00;;;;;;;6.90;5.60;;;;;;;3.91;100.00;97485.16;5091618;28;20319;-70
2021/01/07 00:39:26;;;;;;;8.10;6.33;;;;;;;3.79;100.00;97487.66;5092723;28;20291;-69
2021/01/07 00:41:54;;;;;;;6.17;5.50;;;;;;;3.83;100.00;97487.81;5092396;28;20307;-70
2021/01/07 00:44:20;;;;;;;6.03;5.43;;;;;;;3.56;100.00;97488.72;5074598;28;20295;-69
2021/01/07 00:46:46;;;;;;;7.20;6.10;;;;;;;3.85;100.00;97489.13;5092731;28;20297;-69
2021/01/07 00:49:15;;;;;;;7.40;6.53;;;;;;;3.70;100.00;97494.97;5092397;28;20308;-69
2021/01/07 00:51:43;;;;;;;7.50;6.30;;;;;;;3.82;100.00;97487.00;5091379;28;20205;-69
2021/01/07 00:54:10;;;;;;;8.00;6.40;;;;;;;3.80;100.00;97488.44;5090600;28;20299;-69
2021/01/07 00:56:39;;;;;;;6.70;6.00;;;;;;;3.83;100.00;97487.81;5092511;28;20694;-69
2021/01/07 00:59:06;;;;;;;7.73;6.23;;;;;;;3.31;100.00;97489.31;5092556;28;20204;-69
2021/01/07 01:34:22;;;;;;;11.17;8.30;;;;;;;4.00;100.00;97510.59;5109192;27;20832;-70
2021/01/07 01:36:49;;;;;;;11.50;8.93;;;;;;;3.92;100.00;97518.72;5109703;28;20228;-70
2021/01/07 01:39:16;;;;;;;10.63;8.77;;;;;;;3.84;100.00;97527.63;5109679;28;20628;-70
2021/01/07 01:41:46;;;;;;;10.53;8.47;;;;;;;3.65;100.00;97516.88;5109447;28;20636;-69
2021/01/07 01:44:13;;;;;;;12.90;8.93;;;;;;;3.76;100.00;97514.75;5109110;28;20648;-71
2021/01/07 01:46:40;;;;;;;10.77;8.93;;;;;;;3.75;100.00;97519.38;5109278;28;20727;-70
2021/01/07 01:49:12;;;;;;;12.07;8.97;;;;;;;3.73;100.00;97516.16;5109395;28;20208;-70
2021/01/07 01:51:39;;;;;;;10.80;8.80;;;;;;;3.94;100.00;97514.53;5108243;28;20789;-69
2021/01/07 01:54:05;;;;;;;9.67;8.27;;;;;;;3.90;100.00;97521.75;5108807;28;20784;-69
2021/01/07 01:56:32;;;;;;;10.30;8.13;;;;;;;3.98;100.00;97512.81;5109093;28;20318;-69
2021/01/07 01:58:59;;;;;;;10.97;8.77;;;;;;;3.97;100.00;97511.22;5109506;28;20640;-70
2021/01/07 02:01:25;;;;;;;8.90;8.00;;;;;;;3.66;100.00;97507.59;5109080;28;20246;-70
2021/01/07 02:03:52;;;;;;;9.50;8.50;;;;;;;3.80;100.00;97510.25;5109218;28;20303;-69
2021/01/07 02:06:20;;;;;;;9.33;8.27;;;;;;;3.72;100.00;97509.06;5108052;28;20306;-69
2021/01/07 02:08:48;;;;;;;9.47;8.23;;;;;;;4.00;100.00;97517.97;5108839;28;20287;-69
2021/01/07 02:11:15;;;;;;;8.97;7.67;;;;;;;3.81;100.00;97500.97;5108785;28;20204;-69
2021/01/07 02:13:46;;;;;;;9.57;7.87;;;;;;;3.88;100.00;97507.63;5108275;28;20763;-69
2021/01/07 02:16:23;;;;;;;9.13;7.90;;;;;;;3.93;100.00;97495.75;5107681;28;20231;-70
2021/01/07 02:18:53;;;;;;;9.60;7.63;;;;;;;3.78;100.00;97502.38;5108881;28;20208;-69
2021/01/07 02:21:19;;;;;;;10.37;7.87;;;;;;;3.77;100.00;97500.78;5108545;28;20295;-69
2021/01/07 02:23:53;;;;;;;10.37;8.23;;;;;;;3.84;100.00;97490.25;5108378;28;20200;-69
2021/01/07 02:26:21;;;;;;;9.60;8.27;;;;;;;3.69;100.00;97496.06;5107729;28;20301;-69
2021/01/07 02:28:47;;;;;;;10.13;8.00;;;;;;;3.82;100.00;97497.94;5107501;28;20291;-70
2021/01/07 02:31:14;;;;;;;9.10;7.37;;;;;;;3.64;100.00;97496.19;5108539;28;20744;-69
2021/01/07 02:33:41;;;;;;;8.93;7.80;;;;;;;3.57;100.00;97498.53;5107682;28;20230;-69
2021/01/07 02:36:07;;;;;;;10.07;8.10;;;;;;;3.85;100.00;97497.31;5106107;28;20210;-69
2021/01/07 02:38:35;;;;;;;10.13;8.23;;;;;;;3.83;100.00;97488.63;5096837;28;20294;-68
2021/01/07 02:41:01;;;;;;;10.20;7.50;;;;;;;3.56;100.00;97488.72;5107998;28;20303;-70
2021/01/07 02:43:27;;;;;;;10.67;8.60;;;;;;;3.59;100.00;97490.84;5106787;28;20234;-69
2021/01/07 02:45:53;;;;;;;10.03;8.53;;;;;;;3.40;100.00;97479.28;5094232;28;20196;-70
2021/01/07 02:48:20;;;;;;;10.40;8.27;;;;;;;3.28;100.00;97486.38;5094346;28;20232;-70
2021/01/07 02:50:46;;;;;;;11.03;8.73;;;;;;;3.26;100.00;97486.69;5093103;28;20241;-70
2021/01/07 02:53:14;;;;;;;10.60;8.83;;;;;;;3.64;100.00;97485.28;5093255;28;20228;-69
2021/01/07 02:55:40;;;;;;;9.63;7.87;;;;;;;3.27;100.00;97484.75;5094175;28;20307;-70
2021/01/07 02:58:06;;;;;;;9.50;8.50;;;;;;;3.63;100.00;97491.81;5093271;28;20319;-69
2021/01/07 03:00:33;;;;;;;10.87;8.50;;;;;;;3.58;100.00;97496.59;5094497;28;20207;-69
2021/01/07 03:02:59;;;;;;;11.73;8.60;;;;;;;3.38;100.00;97497.88;5094108;28;20817;-69
2021/01/07 03:05:25;;;;;;;12.50;9.70;;;;;;;3.43;100.00;97505.91;5094218;28;20205;-70
2021/01/07 03:07:51;;;;;;;11.20;9.07;;;;;;;3.64;100.00;97496.19;5093270;28;20307;-70
2021/01/07 03:10:17;;;;;;;11.53;9.20;;;;;;;3.68;100.00;97497.19;5094111;28;20641;-69
2021/01/07 03:12:43;;;;;;;12.20;9.00;;;;;;;3.82;100.00;97497.94;5074566;28;20910;-69
2021/01/07 03:15:09;;;;;;;10.83;8.63;;;;;;;3.88;100.00;97493.97;5073862;28;20208;-69
2021/01/07 03:17:36;;;;;;;12.33;9.50;;;;;;;3.83;100.00;97494.06;5073824;28;20773;-69
2021/01/07 03:20:10;;;;;;;12.17;9.13;;;;;;;3.74;100.00;97495.16;5073757;28;20201;-69
2021/01/07 03:22:36;;;;;;;11.83;9.10;;;;;;;3.84;100.00;97492.97;5091717;28;20209;-69
2021/01/07 03:25:06;;;;;;;11.37;9.13;;;;;;;3.77;100.00;97489.88;5092854;28;20208;-69
2021/01/07 03:27:32;;;;;;;11.13;8.90;;;;;;;3.84;100.00;97495.69;5093901;28;20732;-70
2021/01/07 03:29:58;;;;;;;10.67;9.00;;;;;;;3.82;100.00;97481.56;5092798;28;20295;-70
2021/01/07 03:32:24;;;;;;;10.47;8.70;;;;;;;3.78;100.00;97485.19;5093440;28;20308;-70
2021/01/07 03:34:53;;;;;;;11.10;9.10;;;;;;;3.61;100.00;97483.13;5093509;28;20736;-70
2021/01/07 03:37:20;;;;;;;11.27;8.87;;;;;;;3.70;100.00;97491.41;5092574;28;20319;-70
2021/01/07 03:39:46;;;;;;;10.67;8.67;;;;;;;3.84;100.00;97489.44;5093902;28;20292;-70
2021/01/07 03:42:12;;;;;;;10.97;8.63;;;;;;;3.75;100.00;97497.56;5093729;28;20204;-70
2021/01/07 03:44:38;;;;;;;9.80;8.40;;;;;;;3.68;100.00;97490.91;5093316;28;20706;-69
2021/01/07 03:47:04;;;;;;;11.23;8.30;;;;;;;3.77;100.00;97486.31;5093320;28;20323;-69
2021/01/07 03:49:31;;;;;;;9.50;8.23;;;;;;;3.55;100.00;97492.56;5093624;28;20287;-69
2021/01/07 03:51:57;;;;;;;10.23;8.13;;;;;;;3.68;100.00;97497.19;5093636;28;20277;-71
2021/01/07 03:54:23;;;;;;;9.93;8.40;;;;;;;3.64;100.00;97501.63;5091612;28;20576;-69
2021/01/07 03:56:49;;;;;;;10.37;7.87;;;;;;;3.84;100.00;97489.44;5092509;28;20311;-70
2021/01/07 03:59:15;;;;;;;10.20;8.23;;;;;;;3.80;100.00;97491.97;5093402;28;20294;-69
2021/01/07 04:01:41;;;;;;;8.70;7.50;;;;;;;3.81;100.00;97490.06;5092962;28;20306;-70
2021/01/07 04:04:07;;;;;;;9.10;7.60;;;;;;;3.66;100.00;97485.78;5093317;28;20303;-70
2021/01/07 04:06:33;;;;;;;10.10;7.27;;;;;;;3.66;100.00;97502.13;5093039;28;20232;-70
2021/01/07 04:09:04;;;;;;;7.90;7.03;;;;;;;3.54;100.00;97493.69;5093074;28;20215;-69
2021/01/07 04:11:30;;;;;;;8.50;7.03;;;;;;;3.28;100.00;97498.09;5083902;28;20288;-69
2021/01/07 04:13:56;;;;;;;7.27;6.47;;;;;;;3.49;100.00;97507.44;5070973;28;20308;-69
2021/01/07 04:16:24;;;;;;;7.50;6.70;;;;;;;3.57;100.00;97500.44;5072572;28;20317;-69
2021/01/07 04:18:51;;;;;;;8.97;6.90;;;;;;;3.42;100.00;97504.31;5072800;28;20205;-70
2021/01/07 04:21:19;;;;;;;7.67;6.57;;;;;;;3.50;100.00;97510.97;5079361;28;20257;-70
2021/01/07 04:23:45;;;;;;;7.80;6.40;;;;;;;3.75;100.00;97505.75;5092765;28;20200;-69
2021/01/07 04:26:11;;;;;;;7.90;6.10;;;;;;;3.81;100.00;97509.16;5092844;28;20681;-70
2021/01/07 04:28:37;;;;;;;7.57;6.53;;;;;;;3.58;100.00;97497.41;5092403;28;20206;-69
2021/01/07 04:31:03;;;;;;;7.63;6.13;;;;;;;3.47;100.00;97501.47;5091837;28;20209;-70
2021/01/07 04:33:29;;;;;;;7.60;6.07;;;;;;;3.57;100.00;97503.16;5092130;28;20814;-69
2021/01/07 04:35:55;;;;;;;6.23;5.60;;;;;;;3.58;100.00;97502.84;5092888;28;20315;-69
2021/01/07 04:38:23;;;;;;;6.47;5.83;;;;;;;3.74;100.00;97506.06;5092630;28;20666;-69
2021/01/07 04:40:49;;;;;;;6.40;5.40;;;;;;;3.70;100.00;97505.88;5092683;28;20649;-69
2021/01/07 04:43:15;;;;;;;6.67;5.70;;;;;;;3.76;100.00;97510.06;5091990;28;20330;-70
2021/01/07 04:45:41;;;;;;;5.93;5.30;;;;;;;3.58;100.00;97502.84;5091220;28;20645;-69
2021/01/07 04:48:08;;;;;;;6.33;5.53;;;;;;;3.68;100.00;97512.75;5091447;28;20224;-69
2021/01/07 04:50:38;;;;;;;6.67;5.97;;;;;;;3.70;100.00;97513.25;5092114;28;20204;-69
2021/01/07 04:53:05;;;;;;;8.30;5.73;;;;;;;3.79;100.00;97516.84;5090690;28;20256;-70
2021/01/07 04:55:31;;;;;;;8.40;5.40;;;;;;;3.85;100.00;97518.34;5092384;28;20232;-69
2021/01/07 04:57:57;;;;;;;6.40;5.43;;;;;;;3.83;100.00;97518.63;5092643;28;20267;-69
2021/01/07 05:00:23;;;;;;;6.00;5.40;;;;;;;3.39;100.00;97525.94;5092780;28;20291;-69
2021/01/07 05:02:50;;;;;;;6.27;5.50;;;;;;;3.44;100.00;97523.91;5092361;28;20201;-69
2021/01/07 05:05:17;;;;;;;8.50;6.00;;;;;;;3.58;100.00;97527.41;5092603;28;20209;-69
2021/01/07 05:07:43;;;;;;;6.87;5.27;;;;;;;3.57;100.00;97528.53;5092264;28;20278;-69
2021/01/07 05:10:11;;;;;;;6.63;5.50;;;;;;;3.64;100.00;97531.66;5090805;28;20208;-69
2021/01/07 05:12:38;;;;;;;6.50;5.80;;;;;;;3.63;100.00;97530.00;5073277;28;20221;-69
2021/01/07 05:15:06;;;;;;;6.83;5.90;;;;;;;3.62;100.00;97530.31;5071451;28;20644;-68
2021/01/07 05:17:37;;;;;;;6.83;6.13;;;;;;;3.77;100.00;97533.53;5071436;28;20587;-71
2021/01/07 05:20:11;;;;;;;7.93;6.20;;;;;;;3.56;100.00;97532.38;5076413;28;20197;-71
2021/01/07 05:22:42;;;;;;;6.30;5.70;;;;;;;3.65;100.00;97530.50;5079744;28;20280;-71
2021/01/07 05:25:15;;;;;;;6.57;5.83;;;;;;;3.68;100.00;97535.38;5082235;28;20203;-71
2021/01/07 05:27:44;;;;;;;6.57;5.83;;;;;;;3.43;100.00;97527.75;5083409;28;20212;-71
2021/01/07 05:30:14;;;;;;;7.43;5.97;;;;;;;3.54;100.00;97523.69;5074236;28;20212;-70
2021/01/07 05:32:42;;;;;;;10.27;6.60;;;;;;;3.72;100.00;97532.84;5070089;28;20237;-70
2021/01/07 05:35:18;;;;;;;7.67;5.50;;;;;;;3.69;100.00;97531.53;5083676;28;20201;-70
2021/01/07 05:37:44;;;;;;;6.93;5.90;;;;;;;3.69;100.00;97536.16;5091854;28;20280;-69
2021/01/07 05:40:11;;;;;;;6.80;6.00;;;;;;;3.62;100.00;97533.06;5091900;28;20300;-70
2021/01/07 05:42:44;;;;;;;8.13;6.57;;;;;;;3.61;100.00;97529.50;5091566;28;20196;-70
2021/01/07 05:45:17;;;;;;;7.87;6.20;;;;;;;3.50;100.00;97535.53;5090501;28;20204;-70
2021/01/07 05:47:45;;;;;;;7.33;5.83;;;;;;;3.38;100.00;97544.22;5090450;28;20243;-70
2021/01/07 05:50:13;;;;;;;7.13;6.17;;;;;;;3.34;100.00;97539.69;5090701;28;20242;-70
2021/01/07 05:52:44;;;;;;;7.33;5.70;;;;;;;3.38;100.00;97529.78;5080618;28;20225;-68
2021/01/07 05:55:16;;;;;;;7.00;5.70;;;;;;;3.23;100.00;97543.75;5088564;28;20208;-69
2021/01/07 05:57:42;;;;;;;8.03;6.50;;;;;;;3.52;100.00;97536.03;5089586;28;20255;-69
2021/01/07 06:00:12;;;;;;;8.27;6.60;;;;;;;3.34;100.00;97545.94;5082188;28;20201;-69
2021/01/07 06:02:40;;;;;;;9.10;6.70;;;;;;;3.31;100.00;97535.66;5078061;28;20285;-68
2021/01/07 06:05:09;;;;;;;9.00;6.53;;;;;;;3.49;100.00;97537.44;5080684;28;20287;-70
2021/01/07 06:07:36;;;;;;;7.93;6.73;;;;;;;3.37;100.00;97537.16;5081397;28;20249;-69
2021/01/07 06:10:04;;;;;;;8.40;6.73;;;;;;;3.34;100.00;97539.69;5076804;28;20730;-69
2021/01/07 06:12:30;;;;;;;9.07;7.00;;;;;;;3.35;100.00;97536.66;5084358;28;20234;-68
2021/01/07 06:15:02;;;;;;;9.13;6.37;;;;;;;3.23;100.00;97550.00;5086214;28;20287;-68
2021/01/07 06:17:33;;;;;;;8.63;7.10;;;;;;;3.44;100.00;97543.00;5091393;28;20246;-68
2021/01/07 06:19:59;;;;;;;8.87;6.97;;;;;;;3.29;100.00;97556.97;5093210;28;20290;-68
2021/01/07 06:22:25;;;;;;;10.20;7.57;;;;;;;3.39;100.00;97548.56;5094486;28;20208;-68
2021/01/07 06:24:54;;;;;;;9.07;7.60;;;;;;;3.49;100.00;97551.06;5094093;28;20582;-68
2021/01/07 06:27:19;;;;;;;10.40;7.70;;;;;;;3.51;100.00;97548.84;5094145;28;20224;-68
2021/01/07 06:29:46;;;;;;;9.57;8.00;;;;;;;3.52;100.00;97536.81;5094482;28;20231;-70
2021/01/07 06:32:13;;;;;;;10.40;8.30;;;;;;;3.44;100.00;97542.19;5094235;28;20223;-69
2021/01/07 06:34:40;;;;;;;10.00;7.97;;;;;;;3.41;100.00;97546.34;5093934;28;20782;-68
2021/01/07 06:37:09;;;;;;;11.27;8.13;;;;;;;3.55;100.00;97549.84;5094847;28;20307;-68
2021/01/07 06:39:42;;;;;;;9.03;7.63;;;;;;;3.52;100.00;97545.00;5094883;28;20292;-68
2021/01/07 06:42:18;;;;;;;9.00;7.93;;;;;;;3.53;100.00;97554.81;5094594;28;20200;-67
2021/01/07 06:44:45;;;;;;;8.80;7.27;;;;;;;3.63;100.00;97546.38;5094721;28;20206;-67
2021/01/07 06:47:21;;;;;;;9.53;8.03;;;;;;;3.65;100.00;97549.63;5094541;28;20311;-67
2021/01/07 06:49:48;;;;;;;9.37;7.73;;;;;;;3.76;100.00;97548.28;5094649;28;20663;-68
2021/01/07 06:52:15;;;;;;;10.67;8.87;;;;;;;3.72;100.00;97552.72;5094624;28;20674;-68
2021/01/07 06:54:44;;;;;;;11.37;8.33;;;;;;;3.62;100.00;97552.97;5092782;28;20224;-67
2021/01/07 06:57:17;;;;;;;9.97;7.97;;;;;;;3.59;100.00;97553.59;5094683;28;20232;-68
2021/01/07 07:00:00;;;;;;;9.87;8.17;;;;;;;3.81;100.00;97553.59;5093463;28;20243;-67
2021/01/07 07:02:27;;;;;;;11.77;8.27;;;;;;;3.60;100.00;97548.91;5094254;28;20596;-68
2021/01/07 07:05:10;;;;;;;19.57;8.73;;;;;;;3.70;100.00;97565.88;5093940;28;20299;-67
2021/01/07 07:07:39;;;;;;;10.57;8.63;;;;;;;3.76;100.00;97566.59;5094169;28;20776;-68
2021/01/07 07:10:17;;;;;;;12.60;9.10;;;;;;;3.66;100.00;97564.06;5094181;28;20240;-68
2021/01/07 07:12:51;;;;;;;12.87;9.23;;;;;;;3.54;100.00;97569.25;5074606;28;20197;-69
2021/01/07 07:15:22;;;;;;;11.07;8.80;;;;;;;3.60;100.00;97571.56;5073589;28;20678;-69
2021/01/07 07:17:51;;;;;;;9.93;8.13;;;;;;;3.55;100.00;97571.66;5074126;28;20304;-69
2021/01/07 07:20:22;;;;;;;13.67;9.00;;;;;;;3.76;100.00;97578.28;5073843;28;20636;-68
2021/01/07 07:22:52;;;;;;;11.70;8.67;;;;;;;3.74;100.00;97577.78;5093557;28;20195;-68
2021/01/07 07:25:23;;;;;;;12.37;9.00;;;;;;;3.84;100.00;97576.75;5093907;28;20212;-68
2021/01/07 07:27:54;;;;;;;14.50;8.77;;;;;;;3.55;100.00;97579.03;5093649;28;20224;-68
2021/01/07 07:30:23;;;;;;;11.40;8.43;;;;;;;3.64;100.00;97588.94;5093946;28;20220;-67
2021/01/07 07:32:50;;;;;;;11.80;9.00;;;;;;;3.61;100.00;97586.78;5093522;28;20320;-67
2021/01/07 07:35:26;;;;;;;11.30;9.20;;;;;;;3.61;100.00;97584.06;5093733;28;20247;-68
2021/01/07 07:37:53;;;;;;;11.07;8.73;;;;;;;3.49;100.00;97589.25;5093709;28;20220;-68
2021/01/07 07:40:22;;;;;;;13.17;8.57;;;;;;;3.62;100.00;97588.44;5093562;28;20243;-68
2021/01/07 07:42:49;;;;;;;12.47;8.80;;;;;;;3.44;100.00;97591.28;5093547;28;20296;-68
2021/01/07 07:45:29;;;;;;;11.77;8.73;;;;;;;3.70;100.00;97587.72;5093734;28;20295;-68
2021/01/07 07:47:59;;;;;;;12.13;8.23;;;;;;;3.64;100.00;97588.94;5093515;28;20315;-68
2021/01/07 07:50:30;;;;;;;10.63;8.37;;;;;;;3.49;100.00;97597.44;5093200;28;20258;-68
2021/01/07 07:53:09;;;;;;;11.57;9.13;;;;;;;3.77;100.00;97590.81;5092840;28;20225;-69
2021/01/07 07:55:36;;;;;;;11.40;8.70;;;;;;;3.65;100.00;97601.44;5093257;28;20234;-69
2021/01/07 07:58:08;;;;;;;11.43;8.53;;;;;;;4.00;100.00;97599.84;5093363;28;20322;-69
2021/01/07 08:00:35;;;;;;;14.30;9.83;;;;;;;3.97;100.00;97606.75;5093309;28;20303;-69
2021/01/07 08:03:02;;;;;;;12.57;10.10;;;;;;;3.78;100.00;97614.25;5091476;28;20251;-69
2021/01/07 08:05:29;;;;;;;11.60;9.13;;;;;;;3.90;100.00;97609.09;5093059;28;20697;-68
2021/01/07 08:07:56;;;;;;;12.30;9.60;;;;;;;3.83;100.00;97602.44;5093254;28;20311;-69
2021/01/07 08:10:23;;;;;;;10.57;8.67;;;;;;;3.79;100.00;97618.63;5091923;28;20232;-68
2021/01/07 08:12:53;;;;;;;10.70;8.57;;;;;;;3.90;100.00;97617.28;5072522;28;20209;-68
2021/01/07 08:15:27;;;;;;;21.47;9.67;;;;;;;4.20;100.00;97612.25;5072459;28;20651;-68
2021/01/07 08:17:53;;;;;;;13.23;9.77;;;;;;;3.84;100.00;97614.97;5072489;28;20271;-69
2021/01/07 08:20:25;;;;;;;12.30;9.57;;;;;;;3.99;100.00;97620.91;5072849;28;20233;-69
2021/01/07 08:22:53;;;;;;;13.10;9.13;;;;;;;4.02;100.00;97616.72;5092328;28;20297;-69
2021/01/07 08:25:32;;;;;;;11.43;9.70;;;;;;;4.00;100.00;97608.03;5092748;28;20287;-69
2021/01/07 08:28:28;;;;;;;11.03;8.60;;;;;;;4.12;100.00;97622.75;5092673;28;20273;-68
2021/01/07 08:30:57;;;;;;;13.90;10.27;;;;;;;3.97;100.00;97631.31;5083897;28;20669;-68
2021/01/07 08:33:24;;;;;;;10.87;8.80;;;;;;;4.00;100.00;97625.22;5092270;28;20315;-68
2021/01/07 08:35:51;;;;;;;12.00;9.20;;;;;;;3.28;100.00;97639.88;5092575;28;20213;-68
2021/01/07 08:38:27;;;;;;;11.37;9.13;;;;;;;3.94;100.00;97621.00;5092469;28;20319;-68
2021/01/07 08:41:15;;;;;;;12.83;10.10;;;;;;;3.95;100.00;97633.53;5092419;28;20774;-68
2021/01/07 08:43:42;;;;;;;11.13;8.97;;;;;;;4.09;100.00;97639.75;5091798;28;20258;-68
2021/01/07 08:46:15;;;;;;;10.93;9.20;;;;;;;3.95;100.00;97632.72;5092567;28;20205;-68
2021/01/07 08:48:46;;;;;;;11.70;8.70;;;;;;;3.94;100.00;97625.66;5092486;28;20228;-69
2021/01/07 08:51:22;;;;;;;10.93;9.23;;;;;;;4.10;100.00;97629.66;5091994;28;20661;-69
2021/01/07 08:53:52;;;;;;;12.63;9.90;;;;;;;4.00;100.00;97625.22;5091791;28;20316;-69
2021/01/07 08:56:35;;;;;;;11.73;9.57;;;;;;;4.04;100.00;97633.59;5089731;28;20320;-68
2021/01/07 08:59:21;;;;;;;12.33;9.53;;;;;;;3.97;100.00;97631.31;5090762;28;20659;-69
2021/01/07 09:01:50;;;;;;;13.10;9.73;;;;;;;3.88;100.00;97637.78;5091149;28;20205;-69
2021/01/07 09:04:30;;;;;;;13.67;9.60;;;;;;;3.98;100.00;97632.91;5091972;28;20639;-69
2021/01/07 09:06:56;;;;;;;12.17;9.80;;;;;;;4.14;100.00;97623.25;5092214;28;20319;-69
2021/01/07 09:09:24;;;;;;;12.87;9.87;;;;;;;3.88;100.00;97626.88;5091959;28;20872;-69
2021/01/07 09:11:50;;;;;;;11.70;9.57;;;;;;;4.19;100.00;97621.53;5080147;28;20835;-69
2021/01/07 09:14:16;;;;;;;12.13;9.70;;;;;;;4.36;100.00;97618.94;5069958;28;20264;-70
2021/01/07 09:16:58;;;;;;;12.57;10.40;;;;;;;4.39;100.00;97607.38;5071573;28;20714;-69
2021/01/07 09:19:26;;;;;;;11.43;9.57;;;;;;;4.25;100.00;97610.19;5071976;28;20201;-68
2021/01/07 09:21:59;;;;;;;13.60;10.17;;;;;;;4.37;100.00;97618.63;5083369;28;20251;-68
2021/01/07 09:24:31;;;;;;;13.80;10.93;;;;;;;4.38;100.00;97620.22;5090412;28;20257;-68
2021/01/07 09:27:07;;;;;;;13.70;10.97;;;;;;;4.40;100.00;97617.22;5091925;28;20307;-68
2021/01/07 09:29:34;;;;;;;12.30;9.70;;;;;;;4.46;100.00;97610.50;5091953;28;20204;-68
2021/01/07 09:32:04;;;;;;;12.27;9.33;;;;;;;4.05;100.00;97619.66;5091540;28;20673;-68
2021/01/07 09:34:30;;;;;;;12.47;9.90;;;;;;;4.06;100.00;97623.19;5091233;28;20315;-68
2021/01/07 09:37:07;;;;;;;11.07;9.43;;;;;;;4.55;100.00;97628.56;5073716;28;20224;-68
2021/01/07 09:39:34;;;;;;;11.60;9.77;;;;;;;4.36;100.00;97632.59;5090755;28;20205;-68
2021/01/07 09:42:00;;;;;;;11.93;10.33;;;;;;;4.30;100.00;97631.09;5091664;28;20661;-68
2021/01/07 09:44:26;;;;;;;12.50;10.17;;;;;;;4.44;100.00;97634.56;5091447;28;20232;-68
2021/01/07 09:46:54;;;;;;;11.87;9.73;;;;;;;4.20;100.00;97623.16;5090289;28;20311;-69
2021/01/07 09:49:20;;;;;;;15.17;10.23;;;;;;;4.45;100.00;97631.56;5091428;28;20295;-70
2021/01/07 09:51:47;;;;;;;11.67;9.70;;;;;;;4.49;100.00;97631.75;5091404;28;20689;-69
2021/01/07 09:54:14;;;;;;;14.47;11.00;;;;;;;4.52;100.00;97622.91;5091924;28;20315;-68
2021/01/07 09:56:41;;;;;;;13.30;10.97;;;;;;;4.47;100.00;97623.03;5095805;28;20315;-68
2021/01/07 09:59:07;;;;;;;12.73;10.83;;;;;;;4.59;100.00;97620.53;5094487;28;20239;-67
2021/01/07 10:01:33;;;;;;;13.33;10.43;;;;;;;4.51;100.00;97624.00;5094386;28;20209;-67
2021/01/07 10:03:59;;;;;;;12.83;10.80;;;;;;;4.60;100.00;97614.75;5095153;28;20287;-68
2021/01/07 10:06:25;;;;;;;12.73;10.43;;;;;;;4.65;100.00;97619.31;5093938;28;20359;-68
2021/01/07 10:08:51;;;;;;;12.13;10.50;;;;;;;4.51;100.00;97611.16;5095840;28;20296;-68
2021/01/07 10:11:17;;;;;;;13.40;10.63;;;;;;;4.60;100.00;97609.31;5088083;28;20237;-68
2021/01/07 10:13:43;;;;;;;11.63;9.87;;;;;;;4.00;100.00;97611.56;5073400;28;20221;-67
2021/01/07 10:16:14;;;;;;;14.07;11.00;;;;;;;4.37;100.00;97612.34;5073583;28;20239;-68
2021/01/07 10:18:41;;;;;;;15.00;11.13;;;;;;;4.46;100.00;97600.38;5074816;28;20296;-68
2021/01/07 10:21:09;;;;;;;13.27;10.77;;;;;;;4.52;100.00;97606.53;5079021;28;20549;-67
2021/01/07 10:23:42;;;;;;;12.07;10.80;;;;;;;4.34;100.00;97596.59;5094702;28;20262;-67
2021/01/07 10:26:10;;;;;;;11.50;9.67;;;;;;;4.33;100.00;97595.78;5094022;28;20247;-68
2021/01/07 10:28:37;;;;;;;13.17;11.30;;;;;;;4.14;100.00;97595.94;5095166;28;20285;-68
2021/01/07 10:31:04;;;;;;;13.63;11.60;;;;;;;4.54;100.00;97585.97;5094810;28;20258;-67
2021/01/07 10:33:36;;;;;;;13.77;10.63;;;;;;;4.85;100.00;97591.47;5094473;28;20260;-68
2021/01/07 10:36:02;;;;;;;11.97;10.20;;;;;;;4.82;100.00;97587.41;5093284;28;20244;-67
2021/01/07 10:38:31;;;;;;;16.40;11.50;;;;;;;5.00;100.00;97593.75;5094556;28;20673;-68
2021/01/07 10:41:00;;;;;;;11.87;9.67;;;;;;;4.61;100.00;97589.06;5094721;28;20680;-68
2021/01/07 10:43:28;;;;;;;12.20;10.90;;;;;;;4.35;100.00;97598.19;5094690;28;20279;-68
2021/01/07 10:45:55;;;;;;;15.00;11.63;;;;;;;4.13;100.00;97586.16;5093485;28;20753;-68
2021/01/07 10:48:22;;;;;;;14.07;11.67;;;;;;;4.51;100.00;97589.31;5094417;28;20311;-67
2021/01/07 10:50:50;;;;;;;15.37;12.00;;;;;;;4.54;100.00;97574.25;5094447;28;20769;-67
2021/01/07 10:53:34;;;;;;;14.13;12.10;;;;;;;4.68;100.00;97577.69;5094255;28;20235;-67
2021/01/07 10:56:14;;;;;;;16.33;11.83;;;;;;;4.70;100.00;97578.19;5094212;28;20236;-67
2021/01/07 10:59:08;;;;;;;15.00;11.93;;;;;;;4.61;100.00;97566.41;5094650;28;20287;-67
2021/01/07 11:01:53;;;;;;;16.53;12.63;;;;;;;4.36;100.00;97564.31;5094436;28;20243;-68
2021/01/07 11:04:32;;;;;;;19.60;13.37;;;;;;;4.73;100.00;97561.16;5092885;28;20210;-68
2021/01/07 11:07:18;;;;;;;14.63;12.53;;;;;;;4.47;100.00;97558.28;5093941;28;20228;-68
2021/01/07 11:09:51;;;;;;;16.07;13.47;;;;;;;4.44;100.00;97563.56;5093841;28;20294;-68
2021/01/07 11:12:23;;;;;;;19.17;13.30;;;;;;;4.45;100.00;97568.72;5077416;28;20309;-68
2021/01/07 11:14:55;;;;;;;20.27;12.73;;;;;;;4.35;100.00;97565.41;5073226;28;20328;-67
2021/01/07 11:17:25;;;;;;;15.03;12.27;;;;;;;4.81;100.00;97563.13;5072510;28;20231;-67
2021/01/07 11:19:52;;;;;;;19.47;14.30;;;;;;;4.89;100.00;97557.69;5073479;28;20259;-68
2021/01/07 11:22:25;;;;;;;16.83;13.33;;;;;;;4.50;100.00;97554.94;5088765;28;20684;-69
2021/01/07 11:24:51;;;;;;;14.60;11.83;;;;;;;4.72;100.00;97548.63;5093705;28;20232;-68
2021/01/07 11:27:17;;;;;;;15.37;12.47;;;;;;;4.89;100.00;97545.97;5093711;28;20255;-68
2021/01/07 11:29:45;;;;;;;16.90;12.27;;;;;;;4.85;100.00;97539.53;5094293;28;20658;-68
2021/01/07 11:32:14;;;;;;;15.87;12.80;;;;;;;5.09;100.00;97539.94;5094736;28;20213;-67
2021/01/07 11:34:40;;;;;;;15.03;12.13;;;;;;;4.77;100.00;97541.09;5093526;28;20731;-68
2021/01/07 11:37:34;;;;;;;19.20;13.13;;;;;;;5.05;100.00;97536.22;5094168;28;20232;-67
2021/01/07 11:40:06;;;;;;;15.90;12.87;;;;;;;5.08;100.00;97532.84;5093958;28;20201;-67
2021/01/07 11:42:37;;;;;;;15.43;13.00;;;;;;;4.65;100.00;97526.41;5094079;28;20303;-68
2021/01/07 11:45:15;;;;;;;19.40;13.00;;;;;;;4.98;100.00;97530.41;5094131;28;20228;-67
2021/01/07 11:47:54;;;;;;;15.00;12.20;;;;;;;4.68;100.00;97531.22;5094120;28;20638;-68
2021/01/07 11:50:25;;;;;;;18.37;13.63;;;;;;;4.86;100.00;97524.72;5093554;28;20287;-68
2021/01/07 11:52:55;;;;;;;15.33;12.43;;;;;;;4.84;100.00;97529.69;5093616;28;20635;-68
2021/01/07 11:55:22;;;;;;;17.47;13.70;;;;;;;5.10;100.00;97527.88;5092127;28;20304;-67
2021/01/07 11:57:48;;;;;;;17.93;14.07;;;;;;;4.83;100.00;97519.91;5092269;28;20228;-69
2021/01/07 12:00:16;;;;;;;16.97;13.27;;;;;;;4.79;100.00;97527.09;5093407;28;20649;-68
2021/01/07 12:02:47;;;;;;;18.03;13.83;;;;;;;4.68;100.00;97523.03;5093400;28;20710;-67
2021/01/07 12:05:15;;;;;;;19.23;14.70;;;;;;;4.58;100.00;97521.38;5093735;28;20236;-69
2021/01/07 12:07:41;;;;;;;19.73;14.97;;;;;;;4.70;100.00;97518.06;5093359;28;20782;-67